createdAt,value
2022-12-25T00:01:33.107Z,101408.94
2022-12-25T00:04:02.235Z,101414.00
2022-12-25T00:06:29.995Z,101410.84
2022-12-25T00:08:57.691Z,101410.34
2022-12-25T00:11:25.391Z,101413.28
2022-12-25T00:13:53.102Z,101404.09
2022-12-25T00:16:23.061Z,101397.28
2022-12-25T00:18:51.213Z,101399.41
2022-12-25T00:21:20.978Z,101388.34
2022-12-25T00:23:48.748Z,101389.69
2022-12-25T00:26:18.670Z,101385.75
2022-12-25T00:28:46.461Z,101400.00
2022-12-25T00:31:16.017Z,101403.22
2022-12-25T00:33:45.913Z,101393.75
2022-12-25T00:36:15.294Z,101391.41
2022-12-25T00:38:44.916Z,101393.28
2022-12-25T00:41:15.460Z,101393.03
2022-12-25T00:43:43.385Z,101394.38
2022-12-25T00:46:13.735Z,101396.75
2022-12-25T00:48:41.680Z,101400.19
2022-12-25T00:51:12.513Z,101401.53
2022-12-25T00:53:40.246Z,101402.06
2022-12-25T00:56:09.650Z,101402.59
2022-12-25T00:58:37.358Z,101405.78
2022-12-25T01:01:05.496Z,101408.13
2022-12-25T01:03:33.103Z,101408.13
2022-12-25T01:06:02.780Z,101400.81
2022-12-25T01:08:32.460Z,101405.00
2022-12-25T01:11:01.220Z,101404.78
2022-12-25T01:13:31.063Z,101414.78
2022-12-25T01:15:58.895Z,101411.13
2022-12-25T01:18:26.850Z,101413.50
2022-12-25T01:20:54.507Z,101415.09
2022-12-25T01:23:22.225Z,101417.72
2022-12-25T01:25:49.902Z,101417.47
2022-12-25T01:28:17.644Z,101424.06
2022-12-25T01:30:50.439Z,101424.06
2022-12-25T01:33:18.164Z,101425.69
2022-12-25T01:35:45.782Z,101420.94
2022-12-25T01:38:13.470Z,101425.41
2022-12-25T01:40:41.560Z,101420.69
2022-12-25T01:43:23.762Z,101413.56
2022-12-25T01:45:53.541Z,101412.75
2022-12-25T01:48:24.545Z,101403.00
2022-12-25T01:50:56.503Z,101405.91
2022-12-25T01:53:25.666Z,101394.56
2022-12-25T01:55:57.560Z,101406.16
2022-12-25T01:58:26.126Z,101421.44
2022-12-25T02:00:55.475Z,101415.38
2022-12-25T02:03:23.788Z,101419.06
2022-12-25T02:05:52.708Z,101423.00
2022-12-25T02:08:21.878Z,101423.50
2022-12-25T02:10:49.867Z,101417.69
2022-12-25T02:13:19.519Z,101416.88
2022-12-25T02:15:56.035Z,101413.72
2022-12-25T02:18:34.705Z,101412.13
2022-12-25T02:21:19.598Z,101412.38
2022-12-25T02:24:14.478Z,101417.38
2022-12-25T02:26:57.970Z,101410.50
2022-12-25T02:29:33.764Z,101403.91
2022-12-25T02:32:09.011Z,101408.38
2022-12-25T02:34:44.145Z,101405.19
2022-12-25T02:37:17.583Z,101402.81
2022-12-25T02:40:00.224Z,101417.34
2022-12-25T02:43:00.009Z,101417.34
2022-12-25T02:45:53.368Z,101422.34
2022-12-25T02:48:42.073Z,101411.81
2022-12-25T02:51:32.741Z,101405.50
2022-12-25T02:54:22.050Z,101395.19
2022-12-25T02:57:08.806Z,101397.81
2022-12-25T02:59:57.035Z,101388.63
2022-12-25T03:02:45.522Z,101391.00
2022-12-25T03:05:32.142Z,101387.06
2022-12-25T03:08:03.796Z,101374.44
2022-12-25T03:10:53.813Z,101362.59
2022-12-25T03:13:25.623Z,101350.19
2022-12-25T03:16:11.943Z,101349.13
2022-12-25T03:18:41.111Z,101349.94
2022-12-25T03:21:26.352Z,101346.00
2022-12-25T03:24:16.046Z,101341.50
2022-12-25T03:26:57.905Z,101338.09
2022-12-25T03:29:44.693Z,101334.16
2022-12-25T03:32:20.991Z,101346.56
2022-12-25T03:35:17.140Z,101346.31
2022-12-25T03:38:12.803Z,101347.66
2022-12-25T03:41:05.918Z,101357.44
2022-12-25T03:44:00.357Z,101350.84
2022-12-25T03:46:50.866Z,101347.69
2022-12-25T03:49:42.864Z,101358.56
2022-12-25T03:52:33.084Z,101357.25
2022-12-25T03:55:22.049Z,101350.16
2022-12-25T03:58:07.304Z,101349.06
2022-12-25T04:00:52.719Z,101353.03
2022-12-25T04:03:38.149Z,101343.28
2022-12-25T04:06:23.829Z,101338.00
2022-12-25T04:09:10.464Z,101337.47
2022-12-25T04:12:02.019Z,101333.50
2022-12-25T04:14:47.531Z,101335.06
2022-12-25T04:17:32.798Z,101333.72
2022-12-25T04:20:14.383Z,101335.28
2022-12-25T04:22:59.240Z,101328.13
2022-12-25T04:25:45.851Z,101337.09
2022-12-25T04:28:31.142Z,101351.84
2022-12-25T04:31:19.152Z,101348.66
2022-12-25T04:34:03.392Z,101357.66
2022-12-25T04:36:31.015Z,101350.78
2022-12-25T04:38:58.685Z,101354.47
2022-12-25T04:41:27.769Z,101347.59
2022-12-25T04:43:55.421Z,101346.00
2022-12-25T04:46:23.161Z,101338.63
2022-12-25T04:48:50.884Z,101343.38
2022-12-25T04:51:20.284Z,101339.94
2022-12-25T04:53:49.316Z,101338.31
2022-12-25T04:56:17.979Z,101334.13
2022-12-25T04:58:47.221Z,101337.00
2022-12-25T05:01:15.050Z,101336.72
2022-12-25T05:03:43.012Z,101328.28
2022-12-25T05:06:10.945Z,101321.41
2022-12-25T05:08:38.694Z,101317.97
2022-12-25T05:11:07.724Z,101312.16
2022-12-25T05:13:35.574Z,101333.25
2022-12-25T05:16:07.525Z,101329.03
2022-12-25T05:18:35.534Z,101315.88
2022-12-25T05:21:03.998Z,101306.09
2022-12-25T05:23:32.482Z,101305.31
2022-12-25T05:26:00.227Z,101298.44
2022-12-25T05:28:27.849Z,101296.84
2022-12-25T05:30:57.454Z,101295.28
2022-12-25T05:33:26.537Z,101297.13
2022-12-25T05:35:54.239Z,101284.72
2022-12-25T05:38:21.997Z,101285.00
2022-12-25T05:40:52.421Z,101285.78
2022-12-25T05:43:20.422Z,101285.78
2022-12-25T05:45:48.136Z,101285.53
2022-12-25T05:48:15.863Z,101284.72
2022-12-25T05:50:44.888Z,101289.47
2022-12-25T05:53:14.754Z,101283.66
2022-12-25T05:55:44.545Z,101283.66
2022-12-25T05:58:13.867Z,101288.69
2022-12-25T06:00:42.233Z,101280.75
2022-12-25T06:03:10.019Z,101293.69
2022-12-25T06:05:39.335Z,101290.81
2022-12-25T06:08:08.753Z,101281.84
2022-12-25T06:10:37.380Z,101283.44
2022-12-25T06:13:05.141Z,101285.00
2022-12-25T06:15:33.001Z,101271.59
2022-12-25T06:18:01.465Z,101265.25
2022-12-25T06:20:29.253Z,101265.78
2022-12-25T06:22:56.901Z,101253.16
2022-12-25T06:25:25.944Z,101260.00
2022-12-25T06:27:53.595Z,101266.88
2022-12-25T06:30:21.352Z,101270.84
2022-12-25T06:32:49.048Z,101267.94
2022-12-25T06:35:16.924Z,101268.47
2022-12-25T06:37:44.545Z,101260.84
2022-12-25T06:40:13.859Z,101271.94
2022-12-25T06:42:42.936Z,101252.16
2022-12-25T06:45:11.608Z,101241.34
2022-12-25T06:47:39.624Z,101247.69
2022-12-25T06:50:08.453Z,101243.72
2022-12-25T06:52:36.191Z,101250.34
2022-12-25T06:55:03.879Z,101249.81
2022-12-25T06:57:31.568Z,101247.19
2022-12-25T07:00:00.602Z,101239.00
2022-12-25T07:02:28.606Z,101240.34
2022-12-25T07:04:56.163Z,101227.94
2022-12-25T07:07:23.827Z,101225.88
2022-12-25T07:09:51.548Z,101221.38
2022-12-25T07:12:21.684Z,101228.00
2022-12-25T07:14:50.096Z,101227.72
2022-12-25T07:17:20.762Z,101231.97
2022-12-25T07:19:48.763Z,101222.97
2022-12-25T07:22:17.370Z,101238.56
2022-12-25T07:24:45.278Z,101245.41
2022-12-25T07:27:13.177Z,101254.38
2022-12-25T07:29:40.831Z,101248.03
2022-12-25T07:32:08.727Z,101245.41
2022-12-25T07:34:37.811Z,101254.66
2022-12-25T07:37:05.497Z,101252.53
2022-12-25T07:39:34.096Z,101249.91
2022-12-25T07:42:01.801Z,101241.75
2022-12-25T07:44:29.470Z,101249.38
2022-12-25T07:46:57.192Z,101261.78
2022-12-25T07:49:24.836Z,101260.75
2022-12-25T07:51:53.837Z,101267.84
2022-12-25T07:54:21.605Z,101277.59
2022-12-25T07:56:52.221Z,101264.94
2022-12-25T07:59:20.255Z,101263.09
2022-12-25T08:01:50.463Z,101264.94
2022-12-25T08:04:18.567Z,101264.69
2022-12-25T08:06:46.345Z,101266.53
2022-12-25T08:09:15.342Z,101268.91
2022-12-25T08:11:46.803Z,101270.50
2022-12-25T08:14:15.196Z,101273.94
2022-12-25T08:16:42.912Z,101283.44
2022-12-25T08:19:10.663Z,101290.31
2022-12-25T08:21:38.589Z,101284.22
2022-12-25T08:24:06.592Z,101300.06
2022-12-25T08:26:35.733Z,101300.88
2022-12-25T08:29:03.391Z,101297.94
2022-12-25T08:31:33.410Z,101282.91
2022-12-25T08:34:04.413Z,101289.78
2022-12-25T08:36:32.419Z,101289.78
2022-12-25T08:39:02.938Z,101279.25
2022-12-25T08:41:31.492Z,101286.88
2022-12-25T08:44:00.514Z,101273.41
2022-12-25T08:46:28.348Z,101266.56
2022-12-25T08:48:56.722Z,101266.28
2022-12-25T08:51:26.244Z,101249.66
2022-12-25T08:53:58.773Z,101253.91
2022-12-25T08:56:26.766Z,101250.19
2022-12-25T08:58:54.501Z,101259.97
2022-12-25T09:01:23.740Z,101258.09
2022-12-25T09:03:51.591Z,101249.69
2022-12-25T09:06:19.648Z,101250.47
2022-12-25T09:08:49.566Z,101256.56
2022-12-25T09:11:18.997Z,101246.75
2022-12-25T09:13:47.402Z,101250.72
2022-12-25T09:16:17.632Z,101243.59
2022-12-25T09:18:46.849Z,101260.78
2022-12-25T09:21:16.161Z,101272.94
2022-12-25T09:23:43.882Z,101267.66
2022-12-25T09:26:13.912Z,101269.22
2022-12-25T09:28:48.510Z,101265.53
2022-12-25T09:31:19.026Z,101270.28
2022-12-25T09:33:48.225Z,101272.66
2022-12-25T09:36:16.056Z,101279.50
2022-12-25T09:38:44.018Z,101290.06
2022-12-25T09:41:18.375Z,101290.88
2022-12-25T09:43:51.023Z,101284.28
2022-12-25T09:46:24.368Z,101266.59
2022-12-25T09:49:02.885Z,101260.28
2022-12-25T09:51:34.165Z,101256.56
2022-12-25T09:54:05.896Z,101256.56
2022-12-25T09:56:34.521Z,101255.00
2022-12-25T09:59:02.219Z,101257.63
2022-12-25T10:01:38.841Z,101260.28
2022-12-25T10:04:24.175Z,101238.34
2022-12-25T10:07:03.731Z,101242.56
2022-12-25T10:09:46.360Z,101237.28
2022-12-25T10:12:27.749Z,101253.63
2022-12-25T10:15:08.098Z,101258.91
2022-12-25T10:17:46.056Z,101238.06
2022-12-25T10:20:23.705Z,101235.44
2022-12-25T10:22:55.541Z,101234.63
2022-12-25T10:25:25.622Z,101231.22
2022-12-25T10:27:57.923Z,101236.22
2022-12-25T10:30:28.417Z,101227.25
2022-12-25T10:32:58.230Z,101228.03
2022-12-25T10:35:29.892Z,101224.34
2022-12-25T10:38:01.217Z,101223.56
2022-12-25T10:40:37.966Z,101215.34
2022-12-25T10:43:12.602Z,101212.19
2022-12-25T10:45:48.126Z,101219.84
2022-12-25T10:48:22.263Z,101193.19
2022-12-25T10:50:51.779Z,101212.19
2022-12-25T10:53:22.740Z,101209.84
2022-12-25T10:55:59.111Z,101192.13
2022-12-25T10:58:27.557Z,101185.78
2022-12-25T11:00:58.698Z,101173.63
2022-12-25T11:03:29.261Z,101166.50
2022-12-25T11:05:58.898Z,101173.91
2022-12-25T11:08:30.087Z,101165.47
2022-12-25T11:10:59.703Z,101161.50
2022-12-25T11:13:30.892Z,101155.41
2022-12-25T11:16:09.559Z,101154.09
2022-12-25T11:18:46.564Z,101145.66
2022-12-25T11:21:19.338Z,101146.41
2022-12-25T11:23:49.023Z,101145.09
2022-12-25T11:26:18.379Z,101134.00
2022-12-25T11:28:47.116Z,101130.28
2022-12-25T11:31:16.945Z,101133.47
2022-12-25T11:33:51.478Z,101130.28
2022-12-25T11:36:26.371Z,101108.59
2022-12-25T11:38:53.842Z,101098.56
2022-12-25T11:41:27.675Z,101095.91
2022-12-25T11:43:59.944Z,101081.88
2022-12-25T11:46:34.569Z,101079.50
2022-12-25T11:49:08.323Z,101085.53
2022-12-25T11:51:40.897Z,101085.28
2022-12-25T11:54:18.689Z,101081.03
2022-12-25T11:56:46.469Z,101078.91
2022-12-25T11:59:21.280Z,101086.03
2022-12-25T12:01:50.946Z,101088.69
2022-12-25T12:04:29.077Z,101091.09
2022-12-25T12:07:05.871Z,101095.31
2022-12-25T12:09:43.722Z,101083.69
2022-12-25T12:12:19.460Z,101083.44
2022-12-25T12:14:52.598Z,101089.78
2022-12-25T12:17:20.633Z,101086.63
2022-12-25T12:19:48.629Z,101073.66
2022-12-25T12:22:22.976Z,101069.19
2022-12-25T12:24:56.991Z,101075.25
2022-12-25T12:27:28.894Z,101074.75
2022-12-25T12:29:59.022Z,101063.66
2022-12-25T12:32:34.232Z,101062.34
2022-12-25T12:35:13.390Z,101070.78
2022-12-25T12:37:44.360Z,101055.16
2022-12-25T12:40:26.742Z,101047.25
2022-12-25T12:42:54.595Z,101046.47
2022-12-25T12:45:27.044Z,101047.25
2022-12-25T12:47:54.997Z,101043.84
2022-12-25T12:50:34.028Z,101048.59
2022-12-25T12:53:24.659Z,101052.81
2022-12-25T12:55:53.132Z,101047.81
2022-12-25T12:58:30.931Z,101049.66
2022-12-25T13:01:07.984Z,101044.38
2022-12-25T13:04:09.003Z,101049.94
2022-12-25T13:06:42.650Z,101040.13
2022-12-25T13:09:28.466Z,101035.66
2022-12-25T13:11:56.275Z,101023.53
2022-12-25T13:14:25.431Z,101023.53
2022-12-25T13:16:55.254Z,101010.31
2022-12-25T13:19:25.038Z,101007.13
2022-12-25T13:21:55.396Z,101002.38
2022-12-25T13:24:27.193Z,100997.88
2022-12-25T13:26:55.181Z,100994.16
2022-12-25T13:29:35.041Z,100996.28
2022-12-25T13:32:04.482Z,100998.91
2022-12-25T13:34:35.476Z,101000.22
2022-12-25T13:37:09.941Z,100983.56
2022-12-25T13:39:51.585Z,100990.44
2022-12-25T13:42:21.120Z,100987.53
2022-12-25T13:44:51.400Z,100971.16
2022-12-25T13:47:22.498Z,100973.53
2022-12-25T13:49:51.536Z,100977.50
2022-12-25T13:52:21.664Z,100984.63
2022-12-25T13:55:01.684Z,100989.91
2022-12-25T13:57:34.017Z,100988.06
2022-12-25T14:00:02.447Z,100975.13
2022-12-25T14:02:33.519Z,100981.47
2022-12-25T14:05:01.790Z,100976.19
2022-12-25T14:07:29.538Z,100976.47
2022-12-25T14:10:03.475Z,100970.41
2022-12-25T14:12:32.797Z,100975.41
2022-12-25T14:15:01.529Z,100967.22
2022-12-25T14:17:29.333Z,100981.19
2022-12-25T14:20:07.924Z,100980.13
2022-12-25T14:22:38.585Z,100978.53
2022-12-25T14:25:16.822Z,100990.72
2022-12-25T14:27:50.719Z,100985.72
2022-12-25T14:30:19.185Z,100981.47
2022-12-25T14:32:51.771Z,100971.41
2022-12-25T14:35:23.491Z,100976.69
2022-12-25T14:37:57.130Z,100979.84
2022-12-25T14:40:30.315Z,100973.00
2022-12-25T14:42:59.136Z,100959.81
2022-12-25T14:45:29.703Z,100954.50
2022-12-25T14:47:58.939Z,100951.06
2022-12-25T14:50:28.850Z,100952.91
2022-12-25T14:52:57.302Z,100947.13
2022-12-25T14:55:28.207Z,100948.97
2022-12-25T14:57:59.612Z,100957.97
2022-12-25T15:00:31.684Z,100959.53
2022-12-25T15:03:01.241Z,100950.06
2022-12-25T15:05:32.436Z,100957.97
2022-12-25T15:08:23.018Z,100961.66
2022-12-25T15:11:02.273Z,100960.09
2022-12-25T15:13:32.059Z,100961.66
2022-12-25T15:16:04.752Z,100956.38
2022-12-25T15:18:37.899Z,100961.66
2022-12-25T15:21:05.829Z,100969.59
2022-12-25T15:23:33.506Z,100976.47
2022-12-25T15:26:02.570Z,100971.19
2022-12-25T15:28:30.202Z,100965.63
2022-12-25T15:30:57.989Z,100967.22
2022-12-25T15:33:25.667Z,100960.84
2022-12-25T15:35:53.315Z,100958.22
2022-12-25T15:38:20.992Z,100959.81
2022-12-25T15:40:48.734Z,100966.94
2022-12-25T15:43:40.099Z,100960.59
2022-12-25T15:46:06.677Z,100951.88
2022-12-25T15:48:34.190Z,100945.00
2022-12-25T15:51:01.869Z,100945.50
2022-12-25T15:53:29.509Z,100950.78
2022-12-25T15:55:57.257Z,100943.66
2022-12-25T15:58:26.308Z,100942.59
2022-12-25T16:00:53.991Z,100932.56
2022-12-25T16:03:21.714Z,100929.13
2022-12-25T16:05:49.755Z,100924.63
2022-12-25T16:08:17.247Z,100918.81
2022-12-25T16:10:44.948Z,100930.19
2022-12-25T16:13:12.660Z,100936.25
2022-12-25T16:15:42.084Z,100933.38
2022-12-25T16:18:11.429Z,100945.28
2022-12-25T16:20:39.104Z,100951.09
2022-12-25T16:23:06.759Z,100947.16
2022-12-25T16:25:34.414Z,100946.34
2022-12-25T16:28:03.578Z,100947.44
2022-12-25T16:30:31.397Z,100941.34
2022-12-25T16:33:00.464Z,100935.03
2022-12-25T16:35:28.171Z,100928.41
2022-12-25T16:37:55.982Z,100926.28
2022-12-25T16:40:23.735Z,100917.78
2022-12-25T16:42:51.434Z,100915.13
2022-12-25T16:45:19.466Z,100909.84
2022-12-25T16:47:47.340Z,100892.97
2022-12-25T16:50:17.234Z,100896.13
2022-12-25T16:52:47.898Z,100911.44
2022-12-25T16:55:17.901Z,100913.03
2022-12-25T16:57:47.669Z,100905.09
2022-12-25T17:00:16.277Z,100913.53
2022-12-25T17:02:44.116Z,100912.75
2022-12-25T17:05:11.872Z,100900.34
2022-12-25T17:07:41.015Z,100912.47
2022-12-25T17:10:10.248Z,100904.28
2022-12-25T17:12:38.151Z,100905.03
2022-12-25T17:15:07.799Z,100899.75
2022-12-25T17:17:35.477Z,100897.13
2022-12-25T17:20:04.579Z,100893.41
2022-12-25T17:22:32.447Z,100897.66
2022-12-25T17:25:01.488Z,100908.22
2022-12-25T17:27:31.575Z,100915.63
2022-12-25T17:29:59.284Z,100905.63
2022-12-25T17:32:27.000Z,100912.78
2022-12-25T17:34:54.683Z,100909.38
2022-12-25T17:37:22.386Z,100904.66
2022-12-25T17:39:50.004Z,100906.25
2022-12-25T17:42:19.059Z,100908.66
2022-12-25T17:44:47.309Z,100906.31
2022-12-25T17:47:14.991Z,100908.94
2022-12-25T17:49:42.676Z,100917.13
2022-12-25T17:52:10.386Z,100916.88
2022-12-25T17:54:39.162Z,100916.06
2022-12-25T17:57:06.819Z,100918.44
2022-12-25T17:59:36.021Z,100917.38
2022-12-25T18:02:04.051Z,100914.75
2022-12-25T18:04:31.682Z,100909.47
2022-12-25T18:06:59.400Z,100907.06
2022-12-25T18:09:27.095Z,100904.72
2022-12-25T18:11:55.628Z,100898.91
2022-12-25T18:14:23.323Z,100884.13
2022-12-25T18:16:52.530Z,100896.81
2022-12-25T18:19:20.393Z,100895.25
2022-12-25T18:21:48.044Z,100893.66
2022-12-25T18:24:15.715Z,100887.59
2022-12-25T18:26:43.443Z,100886.28
2022-12-25T18:29:11.140Z,100890.78
2022-12-25T18:31:38.900Z,100888.91
2022-12-25T18:34:07.978Z,100892.66
2022-12-25T18:36:36.867Z,100900.56
2022-12-25T18:39:05.233Z,100901.63
2022-12-25T18:41:52.876Z,100897.63
2022-12-25T18:44:20.566Z,100898.72
2022-12-25T18:46:48.239Z,100904.22
2022-12-25T18:49:17.317Z,100911.88
2022-12-25T18:51:44.999Z,100910.31
2022-12-25T18:54:12.727Z,100912.69
2022-12-25T18:56:40.411Z,100903.47
2022-12-25T18:59:08.247Z,100908.22
2022-12-25T19:01:36.050Z,100892.66
2022-12-25T19:04:05.616Z,100890.31
2022-12-25T19:06:35.084Z,100893.19
2022-12-25T19:09:09.367Z,100886.06
2022-12-25T19:11:46.064Z,100894.28
2022-12-25T19:14:15.222Z,100891.66
2022-12-25T19:16:44.384Z,100897.19
2022-12-25T19:19:12.389Z,100890.84
2022-12-25T19:21:41.604Z,100883.72
2022-12-25T19:24:09.391Z,100886.88
2022-12-25T19:26:37.649Z,100890.53
2022-12-25T19:29:05.707Z,100889.75
2022-12-25T19:31:36.230Z,100891.63
2022-12-25T19:34:03.949Z,100886.88
2022-12-25T19:36:32.396Z,100882.66
2022-12-25T19:39:01.820Z,100887.41
2022-12-25T19:41:29.482Z,100882.66
2022-12-25T19:43:57.166Z,100899.56
2022-12-25T19:46:26.988Z,100906.97
2022-12-25T19:48:55.842Z,100908.81
2022-12-25T19:51:26.195Z,100910.16
2022-12-25T19:53:56.132Z,100910.16
2022-12-25T19:56:25.981Z,100916.75
2022-12-25T19:58:54.114Z,100912.25
2022-12-25T20:01:24.339Z,100914.91
2022-12-25T20:03:52.399Z,100906.97
2022-12-25T20:06:24.889Z,100910.13
2022-12-25T20:08:54.615Z,100912.47
2022-12-25T20:11:23.653Z,100905.06
2022-12-25T20:13:52.678Z,100911.94
2022-12-25T20:16:20.546Z,100919.31
2022-12-25T20:18:48.251Z,100912.19
2022-12-25T20:21:18.414Z,100915.34
2022-12-25T20:23:48.464Z,100913.47
2022-12-25T20:26:18.297Z,100920.63
2022-12-25T20:28:46.313Z,100917.97
2022-12-25T20:31:17.903Z,100910.06
2022-12-25T20:33:46.478Z,100914.00
2022-12-25T20:36:14.813Z,100911.09
2022-12-25T20:38:43.322Z,100910.81
2022-12-25T20:41:29.721Z,100906.84
2022-12-25T20:43:58.478Z,100907.63
2022-12-25T20:46:27.691Z,100903.66
2022-12-25T20:48:55.445Z,100914.22
2022-12-25T20:51:25.646Z,100923.72
2022-12-25T20:53:54.015Z,100919.22
2022-12-25T20:56:23.838Z,100923.72
2022-12-25T20:58:54.123Z,100915.53
2022-12-25T21:01:21.971Z,100912.59
2022-12-25T21:03:51.330Z,100920.81
2022-12-25T21:06:19.328Z,100926.34
2022-12-25T21:08:47.010Z,100929.53
2022-12-25T21:11:15.654Z,100931.66
2022-12-25T21:13:45.240Z,100933.00
2022-12-25T21:16:15.393Z,100931.16
2022-12-25T21:18:43.356Z,100937.50
2022-12-25T21:21:12.573Z,100928.00
2022-12-25T21:23:41.166Z,100935.91
2022-12-25T21:26:13.876Z,100937.25
2022-12-25T21:28:42.153Z,100925.91
2022-12-25T21:31:10.318Z,100931.19
2022-12-25T21:33:52.345Z,100941.75
2022-12-25T21:36:24.640Z,100951.53
2022-12-25T21:38:57.721Z,100962.88
2022-12-25T21:41:26.076Z,100959.72
2022-12-25T21:43:53.972Z,100959.72
2022-12-25T21:46:21.741Z,100970.03
2022-12-25T21:48:50.350Z,100957.06
2022-12-25T21:51:39.755Z,100965.78
2022-12-25T21:54:08.288Z,100968.16
2022-12-25T21:56:43.628Z,100960.22
2022-12-25T21:59:14.596Z,100966.06
2022-12-25T22:01:42.490Z,100968.16
2022-12-25T22:04:10.668Z,100966.06
2022-12-25T22:06:57.228Z,100963.41
2022-12-25T22:09:24.949Z,100976.63
2022-12-25T22:12:10.256Z,100973.97
2022-12-25T22:14:56.865Z,100964.47
2022-12-25T22:17:44.240Z,100971.34
2022-12-25T22:20:15.162Z,100975.81
2022-12-25T22:22:44.499Z,100965.25
2022-12-25T22:25:13.203Z,100974.75
2022-12-25T22:27:41.919Z,100969.22
2022-12-25T22:30:12.264Z,100980.53
2022-12-25T22:32:40.372Z,100986.63
2022-12-25T22:35:08.638Z,100981.34
2022-12-25T22:37:36.785Z,100966.28
2022-12-25T22:40:06.519Z,100956.50
2022-12-25T22:42:34.807Z,100955.72
2022-12-25T22:45:02.653Z,100948.31
2022-12-25T22:47:30.405Z,100938.53
2022-12-25T22:49:58.122Z,100953.31
2022-12-25T22:52:25.953Z,100957.53
2022-12-25T22:54:53.725Z,100945.94
2022-12-25T22:57:22.730Z,100935.34
2022-12-25T22:59:52.724Z,100946.44
2022-12-25T23:02:20.692Z,100947.22
2022-12-25T23:04:48.893Z,100949.88
2022-12-25T23:07:17.044Z,100969.13
2022-12-25T23:09:45.206Z,100953.28
2022-12-25T23:12:33.378Z,100961.72
2022-12-25T23:15:01.492Z,100969.66
2022-12-25T23:17:46.688Z,100954.59
2022-12-25T23:20:33.135Z,100945.88
2022-12-25T23:23:32.781Z,100947.47
2022-12-25T23:26:09.856Z,100930.81
2022-12-25T23:28:56.044Z,100925.28
2022-12-25T23:31:27.990Z,100941.91
2022-12-25T23:33:55.762Z,100930.56
2022-12-25T23:36:23.605Z,100944.53
2022-12-25T23:38:51.256Z,100949.81
2022-12-25T23:41:19.185Z,100959.34
2022-12-25T23:43:47.069Z,100962.78
2022-12-25T23:46:15.108Z,100965.94
2022-12-25T23:48:43.990Z,100963.56
2022-12-25T23:51:11.894Z,100965.94
2022-12-25T23:53:39.831Z,100958.00
2022-12-25T23:56:07.899Z,100959.06
2022-12-25T23:58:35.377Z,100972.25
